sensor_id;sensor_type;location;lat;lon;timestamp;P1;P2;P0
65360;PMS5003;51958;55.018;73.536;2022-08-19T00:01:38;0.00;0.00;0.00
65360;PMS5003;51958;55.018;73.536;2022-08-19T00:04:05;0.00;0.00;0.00
65360;PMS5003;51958;55.018;73.536;2022-08-19T00:06:33;0.00;0.00;0.00
65360;PMS5003;51958;55.018;73.536;2022-08-19T00:09:00;0.00;0.00;0.00
65360;PMS5003;51958;55.018;73.536;2022-08-19T00:11:26;0.00;0.00;0.00
65360;PMS5003;51958;55.018;73.536;2022-08-19T00:13:56;0.00;0.00;0.00
65360;PMS5003;51958;55.018;73.536;2022-08-19T00:16:23;0.00;0.00;0.00
65360;PMS5003;51958;55.018;73.536;2022-08-19T00:18:59;0.00;0.00;0.00
65360;PMS5003;51958;55.018;73.536;2022-08-19T00:21:25;0.00;0.00;0.00
65360;PMS5003;51958;55.018;73.536;2022-08-19T00:23:58;0.00;0.00;0.00
65360;PMS5003;51958;55.018;73.536;2022-08-19T00:26:25;0.00;0.00;0.00
65360;PMS5003;51958;55.018;73.536;2022-08-19T00:28:51;0.00;0.00;0.00
65360;PMS5003;51958;55.018;73.536;2022-08-19T00:31:17;0.00;0.00;0.00
65360;PMS5003;51958;55.018;73.536;2022-08-19T00:33:43;0.00;0.00;0.00
65360;PMS5003;51958;55.018;73.536;2022-08-19T00:36:14;0.00;0.00;0.00
65360;PMS5003;51958;55.018;73.536;2022-08-19T00:38:51;0.00;0.00;0.00
65360;PMS5003;51958;55.018;73.536;2022-08-19T00:41:27;0.00;0.00;0.00
65360;PMS5003;51958;55.018;73.536;2022-08-19T00:44:02;0.00;0.00;0.00
65360;PMS5003;51958;55.018;73.536;2022-08-19T00:46:38;0.00;0.00;0.00
65360;PMS5003;51958;55.018;73.536;2022-08-19T00:49:15;0.00;0.00;0.00
65360;PMS5003;51958;55.018;73.536;2022-08-19T00:51:43;0.00;0.00;0.00
65360;PMS5003;51958;55.018;73.536;2022-08-19T00:54:15;0.00;0.00;0.00
65360;PMS5003;51958;55.018;73.536;2022-08-19T00:56:51;0.00;0.00;0.00
65360;PMS5003;51958;55.018;73.536;2022-08-19T00:59:17;0.00;0.00;0.00
65360;PMS5003;51958;55.018;73.536;2022-08-19T01:01:44;0.00;0.00;0.00
65360;PMS5003;51958;55.018;73.536;2022-08-19T01:04:11;0.00;0.00;0.00
65360;PMS5003;51958;55.018;73.536;2022-08-19T01:06:41;0.00;0.00;0.00
65360;PMS5003;51958;55.018;73.536;2022-08-19T01:09:07;0.00;0.00;0.00
65360;PMS5003;51958;55.018;73.536;2022-08-19T01:11:34;0.00;0.00;0.00
65360;PMS5003;51958;55.018;73.536;2022-08-19T01:14:00;0.00;0.00;0.00
65360;PMS5003;51958;55.018;73.536;2022-08-19T01:16:27;0.00;0.00;0.00
65360;PMS5003;51958;55.018;73.536;2022-08-19T01:19:06;0.00;0.00;0.00
65360;PMS5003;51958;55.018;73.536;2022-08-19T01:21:47;0.00;0.00;0.00
65360;PMS5003;51958;55.018;73.536;2022-08-19T01:24:15;0.00;0.00;0.00
65360;PMS5003;51958;55.018;73.536;2022-08-19T01:26:42;0.00;0.00;0.00
65360;PMS5003;51958;55.018;73.536;2022-08-19T01:29:13;0.00;0.00;0.00
65360;PMS5003;51958;55.018;73.536;2022-08-19T01:31:39;0.00;0.00;0.00
65360;PMS5003;51958;55.018;73.536;2022-08-19T01:34:06;0.00;0.00;0.00
65360;PMS5003;51958;55.018;73.536;2022-08-19T01:36:34;0.00;0.00;0.00
65360;PMS5003;51958;55.018;73.536;2022-08-19T01:39:01;0.00;0.00;0.00
65360;PMS5003;51958;55.018;73.536;2022-08-19T01:41:27;0.00;0.00;0.00
65360;PMS5003;51958;55.018;73.536;2022-08-19T01:43:54;0.00;0.00;0.00
65360;PMS5003;51958;55.018;73.536;2022-08-19T01:46:20;0.00;0.00;0.00
65360;PMS5003;51958;55.018;73.536;2022-08-19T01:48:51;0.00;0.00;0.00
65360;PMS5003;51958;55.018;73.536;2022-08-19T01:51:17;0.00;0.00;0.00
65360;PMS5003;51958;55.018;73.536;2022-08-19T01:53:43;0.00;0.00;0.00
65360;PMS5003;51958;55.018;73.536;2022-08-19T01:56:12;0.00;0.00;0.00
65360;PMS5003;51958;55.018;73.536;2022-08-19T01:58:45;0.00;0.00;0.00
65360;PMS5003;51958;55.018;73.536;2022-08-19T02:01:16;0.00;0.00;0.00
65360;PMS5003;51958;55.018;73.536;2022-08-19T02:03:42;0.00;0.00;0.00
65360;PMS5003;51958;55.018;73.536;2022-08-19T02:06:14;0.00;0.00;0.00
65360;PMS5003;51958;55.018;73.536;2022-08-19T02:08:43;0.00;0.00;0.00
65360;PMS5003;51958;55.018;73.536;2022-08-19T02:11:24;0.00;0.00;0.00
65360;PMS5003;51958;55.018;73.536;2022-08-19T02:13:52;0.00;0.00;0.00
65360;PMS5003;51958;55.018;73.536;2022-08-19T02:16:21;0.00;0.00;0.00
65360;PMS5003;51958;55.018;73.536;2022-08-19T02:18:47;0.00;0.00;0.00
65360;PMS5003;51958;55.018;73.536;2022-08-19T02:21:18;0.00;0.00;0.00
65360;PMS5003;51958;55.018;73.536;2022-08-19T02:23:50;0.00;0.00;0.00
65360;PMS5003;51958;55.018;73.536;2022-08-19T02:26:17;0.00;0.00;0.00
65360;PMS5003;51958;55.018;73.536;2022-08-19T02:28:43;0.00;0.00;0.00
65360;PMS5003;51958;55.018;73.536;2022-08-19T02:31:11;0.00;0.00;0.00
65360;PMS5003;51958;55.018;73.536;2022-08-19T02:33:38;0.00;0.00;0.00
65360;PMS5003;51958;55.018;73.536;2022-08-19T02:36:05;0.00;0.00;0.00
65360;PMS5003;51958;55.018;73.536;2022-08-19T02:38:31;0.00;0.00;0.00
65360;PMS5003;51958;55.018;73.536;2022-08-19T02:41:08;0.00;0.00;0.00
65360;PMS5003;51958;55.018;73.536;2022-08-19T02:43:36;0.00;0.00;0.00
65360;PMS5003;51958;55.018;73.536;2022-08-19T02:46:25;0.00;0.00;0.00
65360;PMS5003;51958;55.018;73.536;2022-08-19T02:48:50;0.00;0.00;0.00
65360;PMS5003;51958;55.018;73.536;2022-08-19T02:51:18;0.00;0.00;0.00
65360;PMS5003;51958;55.018;73.536;2022-08-19T02:53:45;0.00;0.00;0.00
65360;PMS5003;51958;55.018;73.536;2022-08-19T02:56:11;0.00;0.00;0.00
65360;PMS5003;51958;55.018;73.536;2022-08-19T02:58:37;0.00;0.00;0.00
65360;PMS5003;51958;55.018;73.536;2022-08-19T03:01:03;0.00;0.00;0.00
65360;PMS5003;51958;55.018;73.536;2022-08-19T03:03:29;0.00;0.00;0.00
65360;PMS5003;51958;55.018;73.536;2022-08-19T03:06:12;0.00;0.00;0.00
65360;PMS5003;51958;55.018;73.536;2022-08-19T03:08:46;0.00;0.00;0.00
65360;PMS5003;51958;55.018;73.536;2022-08-19T03:11:17;0.00;0.00;0.00
65360;PMS5003;51958;55.018;73.536;2022-08-19T03:13:43;0.00;0.00;0.00
65360;PMS5003;51958;55.018;73.536;2022-08-19T03:16:10;0.00;0.00;0.00
65360;PMS5003;51958;55.018;73.536;2022-08-19T03:18:42;0.00;0.00;0.00
65360;PMS5003;51958;55.018;73.536;2022-08-19T03:21:17;0.00;0.00;0.00
65360;PMS5003;51958;55.018;73.536;2022-08-19T03:23:48;0.00;0.00;0.00
65360;PMS5003;51958;55.018;73.536;2022-08-19T03:26:14;0.00;0.00;0.00
65360;PMS5003;51958;55.018;73.536;2022-08-19T03:28:42;0.00;0.00;0.00
65360;PMS5003;51958;55.018;73.536;2022-08-19T03:31:12;0.00;0.00;0.00
65360;PMS5003;51958;55.018;73.536;2022-08-19T03:33:39;0.00;0.00;0.00
65360;PMS5003;51958;55.018;73.536;2022-08-19T03:38:36;0.00;0.00;0.00
65360;PMS5003;51958;55.018;73.536;2022-08-19T03:41:03;0.00;0.00;0.00
65360;PMS5003;51958;55.018;73.536;2022-08-19T03:43:32;0.00;0.00;0.00
65360;PMS5003;51958;55.018;73.536;2022-08-19T03:46:09;0.00;0.00;0.00
65360;PMS5003;51958;55.018;73.536;2022-08-19T03:48:36;0.00;0.00;0.00
65360;PMS5003;51958;55.018;73.536;2022-08-19T03:51:15;0.00;0.00;0.00
65360;PMS5003;51958;55.018;73.536;2022-08-19T03:53:41;0.00;0.00;0.00
65360;PMS5003;51958;55.018;73.536;2022-08-19T03:56:08;0.00;0.00;0.00
65360;PMS5003;51958;55.018;73.536;2022-08-19T03:58:34;1.00;0.00;0.00
65360;PMS5003;51958;55.018;73.536;2022-08-19T04:01:00;2.00;1.00;0.00
65360;PMS5003;51958;55.018;73.536;2022-08-19T04:03:28;1.67;0.00;0.00
65360;PMS5003;51958;55.018;73.536;2022-08-19T04:05:53;0.00;0.00;0.00
65360;PMS5003;51958;55.018;73.536;2022-08-19T04:08:19;0.00;0.00;0.00
65360;PMS5003;51958;55.018;73.536;2022-08-19T04:10:48;0.00;0.00;0.00
65360;PMS5003;51958;55.018;73.536;2022-08-19T04:13:15;0.00;0.00;0.00
65360;PMS5003;51958;55.018;73.536;2022-08-19T04:15:41;0.00;0.00;0.00
65360;PMS5003;51958;55.018;73.536;2022-08-19T04:18:18;0.00;0.00;0.00
65360;PMS5003;51958;55.018;73.536;2022-08-19T04:20:44;0.00;0.00;0.00
65360;PMS5003;51958;55.018;73.536;2022-08-19T04:23:11;0.00;0.00;0.00
65360;PMS5003;51958;55.018;73.536;2022-08-19T04:25:43;0.00;0.00;0.00
65360;PMS5003;51958;55.018;73.536;2022-08-19T04:28:10;0.00;0.00;0.00
65360;PMS5003;51958;55.018;73.536;2022-08-19T04:30:42;0.00;0.00;0.00
65360;PMS5003;51958;55.018;73.536;2022-08-19T04:33:18;1.00;0.00;0.00
65360;PMS5003;51958;55.018;73.536;2022-08-19T04:35:46;0.00;0.00;0.00
65360;PMS5003;51958;55.018;73.536;2022-08-19T04:38:16;1.00;0.00;0.00
65360;PMS5003;51958;55.018;73.536;2022-08-19T04:40:43;0.00;0.00;0.00
65360;PMS5003;51958;55.018;73.536;2022-08-19T04:43:36;0.00;0.00;0.00
65360;PMS5003;51958;55.018;73.536;2022-08-19T04:46:06;0.67;0.00;0.00
65360;PMS5003;51958;55.018;73.536;2022-08-19T04:48:33;0.00;0.00;0.00
65360;PMS5003;51958;55.018;73.536;2022-08-19T04:51:05;0.00;0.00;0.00
65360;PMS5003;51958;55.018;73.536;2022-08-19T04:53:34;0.00;0.00;0.00
65360;PMS5003;51958;55.018;73.536;2022-08-19T04:56:04;0.00;0.00;0.00
65360;PMS5003;51958;55.018;73.536;2022-08-19T04:58:41;0.00;0.00;0.00
65360;PMS5003;51958;55.018;73.536;2022-08-19T05:01:08;0.00;0.00;0.00
65360;PMS5003;51958;55.018;73.536;2022-08-19T05:03:35;0.00;0.00;0.00
65360;PMS5003;51958;55.018;73.536;2022-08-19T05:06:05;0.00;0.00;0.00
65360;PMS5003;51958;55.018;73.536;2022-08-19T05:08:33;0.00;0.00;0.00
65360;PMS5003;51958;55.018;73.536;2022-08-19T05:10:59;0.00;0.00;0.00
65360;PMS5003;51958;55.018;73.536;2022-08-19T05:13:25;0.00;0.00;0.00
65360;PMS5003;51958;55.018;73.536;2022-08-19T05:16:02;0.00;0.00;0.00
65360;PMS5003;51958;55.018;73.536;2022-08-19T05:18:33;0.00;0.00;0.00
65360;PMS5003;51958;55.018;73.536;2022-08-19T05:21:18;0.00;0.00;0.00
65360;PMS5003;51958;55.018;73.536;2022-08-19T05:24:10;1.00;0.00;0.00
65360;PMS5003;51958;55.018;73.536;2022-08-19T05:26:37;0.00;0.00;0.00
65360;PMS5003;51958;55.018;73.536;2022-08-19T05:29:05;0.00;0.00;0.00
65360;PMS5003;51958;55.018;73.536;2022-08-19T05:31:38;0.00;0.00;0.00
65360;PMS5003;51958;55.018;73.536;2022-08-19T05:34:08;0.00;0.00;0.00
65360;PMS5003;51958;55.018;73.536;2022-08-19T05:36:36;1.00;0.00;0.00
65360;PMS5003;51958;55.018;73.536;2022-08-19T05:39:17;0.00;0.00;0.00
65360;PMS5003;51958;55.018;73.536;2022-08-19T05:41:55;0.50;0.00;0.00
65360;PMS5003;51958;55.018;73.536;2022-08-19T05:44:23;0.00;0.00;0.00
65360;PMS5003;51958;55.018;73.536;2022-08-19T05:46:54;1.00;0.00;0.00
65360;PMS5003;51958;55.018;73.536;2022-08-19T05:49:23;0.00;0.00;0.00
65360;PMS5003;51958;55.018;73.536;2022-08-19T05:51:50;0.00;0.00;0.00
65360;PMS5003;51958;55.018;73.536;2022-08-19T05:54:21;0.00;0.00;0.00
65360;PMS5003;51958;55.018;73.536;2022-08-19T05:56:49;0.00;0.00;0.00
65360;PMS5003;51958;55.018;73.536;2022-08-19T05:59:16;0.00;0.00;0.00
65360;PMS5003;51958;55.018;73.536;2022-08-19T06:01:43;0.00;0.00;0.00
65360;PMS5003;51958;55.018;73.536;2022-08-19T06:04:11;0.00;0.00;0.00
65360;PMS5003;51958;55.018;73.536;2022-08-19T06:06:37;0.00;0.00;0.00
65360;PMS5003;51958;55.018;73.536;2022-08-19T06:09:09;0.00;0.00;0.00
65360;PMS5003;51958;55.018;73.536;2022-08-19T06:11:47;0.00;0.00;0.00
65360;PMS5003;51958;55.018;73.536;2022-08-19T06:14:25;0.00;0.00;0.00
65360;PMS5003;51958;55.018;73.536;2022-08-19T06:16:51;0.00;0.00;0.00
65360;PMS5003;51958;55.018;73.536;2022-08-19T06:19:21;0.00;0.00;0.00
65360;PMS5003;51958;55.018;73.536;2022-08-19T06:21:55;0.00;0.00;0.00
65360;PMS5003;51958;55.018;73.536;2022-08-19T06:24:22;0.75;0.00;0.00
65360;PMS5003;51958;55.018;73.536;2022-08-19T06:26:49;0.00;0.00;0.00
65360;PMS5003;51958;55.018;73.536;2022-08-19T06:29:22;0.00;0.00;0.00
65360;PMS5003;51958;55.018;73.536;2022-08-19T06:31:49;0.00;0.00;0.00
65360;PMS5003;51958;55.018;73.536;2022-08-19T06:34:18;0.00;0.00;0.00
65360;PMS5003;51958;55.018;73.536;2022-08-19T06:36:45;0.00;0.00;0.00
65360;PMS5003;51958;55.018;73.536;2022-08-19T06:39:19;0.00;0.00;0.00
65360;PMS5003;51958;55.018;73.536;2022-08-19T06:41:46;1.00;1.00;0.00
65360;PMS5003;51958;55.018;73.536;2022-08-19T06:44:15;0.00;0.00;0.00
65360;PMS5003;51958;55.018;73.536;2022-08-19T06:46:41;1.75;1.75;0.00
65360;PMS5003;51958;55.018;73.536;2022-08-19T06:49:12;0.00;0.00;0.00
65360;PMS5003;51958;55.018;73.536;2022-08-19T06:51:45;0.00;0.00;0.00
65360;PMS5003;51958;55.018;73.536;2022-08-19T06:54:24;0.00;0.00;0.00
65360;PMS5003;51958;55.018;73.536;2022-08-19T06:56:52;0.00;0.00;0.00
65360;PMS5003;51958;55.018;73.536;2022-08-19T06:59:19;0.00;0.00;0.00
65360;PMS5003;51958;55.018;73.536;2022-08-19T07:01:51;0.00;0.00;0.00
65360;PMS5003;51958;55.018;73.536;2022-08-19T07:04:25;0.00;0.00;0.00
65360;PMS5003;51958;55.018;73.536;2022-08-19T07:06:59;0.00;0.00;0.00
65360;PMS5003;51958;55.018;73.536;2022-08-19T07:09:25;0.00;0.00;0.00
65360;PMS5003;51958;55.018;73.536;2022-08-19T07:11:52;0.00;0.00;0.00
65360;PMS5003;51958;55.018;73.536;2022-08-19T07:14:23;0.00;0.00;0.00
65360;PMS5003;51958;55.018;73.536;2022-08-19T07:16:49;0.00;0.00;0.00
65360;PMS5003;51958;55.018;73.536;2022-08-19T07:19:17;1.00;1.00;0.00
65360;PMS5003;51958;55.018;73.536;2022-08-19T07:21:46;2.00;2.00;0.00
65360;PMS5003;51958;55.018;73.536;2022-08-19T07:24:13;0.00;0.00;0.00
65360;PMS5003;51958;55.018;73.536;2022-08-19T07:26:41;0.00;0.00;0.00
65360;PMS5003;51958;55.018;73.536;2022-08-19T07:29:12;0.00;0.00;0.00
65360;PMS5003;51958;55.018;73.536;2022-08-19T07:31:39;0.00;0.00;0.00
65360;PMS5003;51958;55.018;73.536;2022-08-19T07:34:06;0.00;0.00;0.00
65360;PMS5003;51958;55.018;73.536;2022-08-19T07:36:43;0.00;0.00;0.00
65360;PMS5003;51958;55.018;73.536;2022-08-19T07:39:14;0.00;0.00;0.00
65360;PMS5003;51958;55.018;73.536;2022-08-19T07:41:40;0.00;0.00;0.00
65360;PMS5003;51958;55.018;73.536;2022-08-19T07:44:06;0.00;0.00;0.00
65360;PMS5003;51958;55.018;73.536;2022-08-19T07:46:40;0.00;0.00;0.00
65360;PMS5003;51958;55.018;73.536;2022-08-19T07:49:07;1.75;1.00;0.00
65360;PMS5003;51958;55.018;73.536;2022-08-19T07:51:34;1.00;0.00;0.00
65360;PMS5003;51958;55.018;73.536;2022-08-19T07:54:10;0.00;0.00;0.00
65360;PMS5003;51958;55.018;73.536;2022-08-19T07:56:37;0.00;0.00;0.00
65360;PMS5003;51958;55.018;73.536;2022-08-19T07:59:03;0.00;0.00;0.00
65360;PMS5003;51958;55.018;73.536;2022-08-19T08:01:30;0.00;0.00;0.00
65360;PMS5003;51958;55.018;73.536;2022-08-19T08:03:57;0.00;0.00;0.00
65360;PMS5003;51958;55.018;73.536;2022-08-19T08:06:43;0.00;0.00;0.00
65360;PMS5003;51958;55.018;73.536;2022-08-19T08:09:29;0.00;0.00;0.00
65360;PMS5003;51958;55.018;73.536;2022-08-19T08:11:57;0.00;0.00;0.00
65360;PMS5003;51958;55.018;73.536;2022-08-19T08:14:35;0.00;0.00;0.00
65360;PMS5003;51958;55.018;73.536;2022-08-19T08:17:11;0.00;0.00;0.00
65360;PMS5003;51958;55.018;73.536;2022-08-19T08:19:38;0.00;0.00;0.00
65360;PMS5003;51958;55.018;73.536;2022-08-19T08:22:12;0.00;0.00;0.00
65360;PMS5003;51958;55.018;73.536;2022-08-19T08:25:02;0.00;0.00;0.00
65360;PMS5003;51958;55.018;73.536;2022-08-19T08:27:28;0.00;0.00;0.00
65360;PMS5003;51958;55.018;73.536;2022-08-19T08:29:57;0.00;0.00;0.00
65360;PMS5003;51958;55.018;73.536;2022-08-19T08:32:23;1.00;1.00;0.00
65360;PMS5003;51958;55.018;73.536;2022-08-19T08:34:49;2.00;1.33;0.00
65360;PMS5003;51958;55.018;73.536;2022-08-19T08:37:15;1.00;1.00;0.00
65360;PMS5003;51958;55.018;73.536;2022-08-19T08:39:41;1.50;1.00;0.00
65360;PMS5003;51958;55.018;73.536;2022-08-19T08:42:12;1.00;1.00;0.00
65360;PMS5003;51958;55.018;73.536;2022-08-19T08:47:18;1.00;1.00;0.00
65360;PMS5003;51958;55.018;73.536;2022-08-19T08:49:53;1.25;1.00;0.00
65360;PMS5003;51958;55.018;73.536;2022-08-19T08:52:30;1.00;1.00;0.00
65360;PMS5003;51958;55.018;73.536;2022-08-19T08:55:11;0.00;0.00;0.00
65360;PMS5003;51958;55.018;73.536;2022-08-19T08:57:43;0.00;0.00;0.00
65360;PMS5003;51958;55.018;73.536;2022-08-19T09:00:17;1.00;0.25;0.00
65360;PMS5003;51958;55.018;73.536;2022-08-19T09:02:46;2.50;2.00;0.00
65360;PMS5003;51958;55.018;73.536;2022-08-19T09:05:22;5.00;4.50;0.00
65360;PMS5003;51958;55.018;73.536;2022-08-19T09:15:25;2.00;2.00;0.00
65360;PMS5003;51958;55.018;73.536;2022-08-19T09:17:54;1.00;1.00;0.00
65360;PMS5003;51958;55.018;73.536;2022-08-19T09:20:29;2.00;1.00;0.00
65360;PMS5003;51958;55.018;73.536;2022-08-19T09:22:57;2.00;2.00;0.00
65360;PMS5003;51958;55.018;73.536;2022-08-19T09:25:26;4.00;3.00;0.00
65360;PMS5003;51958;55.018;73.536;2022-08-19T09:27:54;4.00;3.00;0.00
65360;PMS5003;51958;55.018;73.536;2022-08-19T09:30:26;5.75;5.75;0.00
65360;PMS5003;51958;55.018;73.536;2022-08-19T09:32:52;4.00;4.00;0.00
65360;PMS5003;51958;55.018;73.536;2022-08-19T09:35:18;2.25;1.25;0.00
65360;PMS5003;51958;55.018;73.536;2022-08-19T09:37:47;1.50;1.25;0.00
65360;PMS5003;51958;55.018;73.536;2022-08-19T09:40:25;2.00;2.00;0.00
65360;PMS5003;51958;55.018;73.536;2022-08-19T09:42:51;3.00;3.00;0.00
65360;PMS5003;51958;55.018;73.536;2022-08-19T09:45:19;2.00;2.00;0.00
65360;PMS5003;51958;55.018;73.536;2022-08-19T09:47:52;5.00;4.00;0.00
65360;PMS5003;51958;55.018;73.536;2022-08-19T09:50:18;8.00;6.00;0.00
65360;PMS5003;51958;55.018;73.536;2022-08-19T09:52:44;5.00;4.00;0.00
65360;PMS5003;51958;55.018;73.536;2022-08-19T09:55:11;4.75;4.75;1.00
65360;PMS5003;51958;55.018;73.536;2022-08-19T10:00:30;4.00;3.00;0.00
65360;PMS5003;51958;55.018;73.536;2022-08-19T10:02:56;4.00;4.00;0.00
65360;PMS5003;51958;55.018;73.536;2022-08-19T10:05:22;7.00;6.00;2.00
65360;PMS5003;51958;55.018;73.536;2022-08-19T10:08:07;5.50;5.00;2.25
65360;PMS5003;51958;55.018;73.536;2022-08-19T10:10:35;5.00;4.00;1.00
65360;PMS5003;51958;55.018;73.536;2022-08-19T10:13:00;6.25;5.75;3.00
65360;PMS5003;51958;55.018;73.536;2022-08-19T10:15:26;4.33;4.33;1.00
65360;PMS5003;51958;55.018;73.536;2022-08-19T10:17:52;8.75;8.00;2.50
65360;PMS5003;51958;55.018;73.536;2022-08-19T10:20:18;7.33;7.00;2.00
65360;PMS5003;51958;55.018;73.536;2022-08-19T10:22:44;8.00;6.50;3.75
65360;PMS5003;51958;55.018;73.536;2022-08-19T10:25:10;13.67;11.00;5.00
65360;PMS5003;51958;55.018;73.536;2022-08-19T10:27:36;11.25;8.25;3.00
65360;PMS5003;51958;55.018;73.536;2022-08-19T10:30:03;6.00;4.00;2.00
65360;PMS5003;51958;55.018;73.536;2022-08-19T10:32:29;8.75;4.00;1.00
65360;PMS5003;51958;55.018;73.536;2022-08-19T10:34:55;7.00;6.00;1.75
65360;PMS5003;51958;55.018;73.536;2022-08-19T10:37:21;7.00;7.00;2.00
65360;PMS5003;51958;55.018;73.536;2022-08-19T10:39:47;4.00;4.00;1.00
65360;PMS5003;51958;55.018;73.536;2022-08-19T10:42:13;4.00;4.00;0.00
65360;PMS5003;51958;55.018;73.536;2022-08-19T10:44:39;2.00;2.00;0.00
65360;PMS5003;51958;55.018;73.536;2022-08-19T10:47:05;5.00;3.00;0.00
65360;PMS5003;51958;55.018;73.536;2022-08-19T10:49:36;4.00;3.25;0.00
65360;PMS5003;51958;55.018;73.536;2022-08-19T10:52:22;3.25;3.25;0.00
65360;PMS5003;51958;55.018;73.536;2022-08-19T10:55:05;6.00;5.00;0.00
65360;PMS5003;51958;55.018;73.536;2022-08-19T10:57:51;7.00;5.75;1.00
65360;PMS5003;51958;55.018;73.536;2022-08-19T11:00:18;7.00;6.00;1.00
65360;PMS5003;51958;55.018;73.536;2022-08-19T11:02:45;5.00;4.00;2.25
65360;PMS5003;51958;55.018;73.536;2022-08-19T11:05:11;4.00;4.00;1.00
65360;PMS5003;51958;55.018;73.536;2022-08-19T11:07:38;3.50;3.25;0.00
65360;PMS5003;51958;55.018;73.536;2022-08-19T11:10:05;4.00;2.75;1.00
65360;PMS5003;51958;55.018;73.536;2022-08-19T11:12:31;3.00;3.00;0.00
65360;PMS5003;51958;55.018;73.536;2022-08-19T11:14:58;3.75;3.00;0.00
65360;PMS5003;51958;55.018;73.536;2022-08-19T11:17:24;5.00;4.00;0.00
65360;PMS5003;51958;55.018;73.536;2022-08-19T11:19:50;7.00;5.00;0.00
65360;PMS5003;51958;55.018;73.536;2022-08-19T11:22:16;3.67;3.67;2.00
65360;PMS5003;51958;55.018;73.536;2022-08-19T11:24:46;2.50;2.00;1.00
65360;PMS5003;51958;55.018;73.536;2022-08-19T11:27:12;1.00;1.00;0.00
65360;PMS5003;51958;55.018;73.536;2022-08-19T11:29:39;1.00;0.25;0.00
65360;PMS5003;51958;55.018;73.536;2022-08-19T11:32:10;5.00;2.75;0.00
65360;PMS5003;51958;55.018;73.536;2022-08-19T11:34:37;1.00;1.00;0.00
65360;PMS5003;51958;55.018;73.536;2022-08-19T11:37:03;0.00;0.00;0.00
65360;PMS5003;51958;55.018;73.536;2022-08-19T11:39:30;0.00;0.00;0.00
65360;PMS5003;51958;55.018;73.536;2022-08-19T11:41:59;0.00;0.00;0.00
65360;PMS5003;51958;55.018;73.536;2022-08-19T11:44:26;0.00;0.00;0.00
65360;PMS5003;51958;55.018;73.536;2022-08-19T11:47:05;0.00;0.00;0.00
65360;PMS5003;51958;55.018;73.536;2022-08-19T11:49:32;1.00;0.00;0.00
65360;PMS5003;51958;55.018;73.536;2022-08-19T11:52:01;0.00;0.00;0.00
65360;PMS5003;51958;55.018;73.536;2022-08-19T11:54:27;0.00;0.00;0.00
65360;PMS5003;51958;55.018;73.536;2022-08-19T11:56:53;0.00;0.00;0.00
65360;PMS5003;51958;55.018;73.536;2022-08-19T11:59:19;0.00;0.00;0.00
65360;PMS5003;51958;55.018;73.536;2022-08-19T12:01:45;0.00;0.00;0.00
65360;PMS5003;51958;55.018;73.536;2022-08-19T12:04:11;0.50;0.00;0.00
65360;PMS5003;51958;55.018;73.536;2022-08-19T12:06:40;1.00;0.00;0.00
65360;PMS5003;51958;55.018;73.536;2022-08-19T12:09:11;0.00;0.00;0.00
65360;PMS5003;51958;55.018;73.536;2022-08-19T12:11:37;0.00;0.00;0.00
65360;PMS5003;51958;55.018;73.536;2022-08-19T12:14:13;0.00;0.00;0.00
65360;PMS5003;51958;55.018;73.536;2022-08-19T12:16:46;0.00;0.00;0.00
65360;PMS5003;51958;55.018;73.536;2022-08-19T12:19:12;0.00;0.00;0.00
65360;PMS5003;51958;55.018;73.536;2022-08-19T12:21:41;0.00;0.00;0.00
65360;PMS5003;51958;55.018;73.536;2022-08-19T12:24:06;0.00;0.00;0.00
65360;PMS5003;51958;55.018;73.536;2022-08-19T12:26:41;2.25;1.00;0.00
65360;PMS5003;51958;55.018;73.536;2022-08-19T12:29:12;4.25;2.50;0.00
65360;PMS5003;51958;55.018;73.536;2022-08-19T12:31:38;7.00;6.00;0.00
65360;PMS5003;51958;55.018;73.536;2022-08-19T12:34:04;7.00;6.25;0.00
65360;PMS5003;51958;55.018;73.536;2022-08-19T12:36:33;12.00;9.00;1.00
65360;PMS5003;51958;55.018;73.536;2022-08-19T12:38:59;8.75;8.00;2.00
65360;PMS5003;51958;55.018;73.536;2022-08-19T12:41:25;9.00;8.00;3.00
65360;PMS5003;51958;55.018;73.536;2022-08-19T12:43:51;9.00;7.33;3.00
65360;PMS5003;51958;55.018;73.536;2022-08-19T12:46:19;7.00;5.00;1.00
65360;PMS5003;51958;55.018;73.536;2022-08-19T12:48:45;10.00;9.00;3.50
65360;PMS5003;51958;55.018;73.536;2022-08-19T12:51:20;6.00;5.00;2.00
65360;PMS5003;51958;55.018;73.536;2022-08-19T12:53:47;9.50;7.75;2.75
65360;PMS5003;51958;55.018;73.536;2022-08-19T12:56:13;9.50;8.00;3.00
65360;PMS5003;51958;55.018;73.536;2022-08-19T12:58:40;8.00;7.00;3.00
65360;PMS5003;51958;55.018;73.536;2022-08-19T13:01:12;8.50;8.00;3.50
65360;PMS5003;51958;55.018;73.536;2022-08-19T13:03:39;13.25;10.00;4.00
65360;PMS5003;51958;55.018;73.536;2022-08-19T13:06:08;7.00;5.00;0.50
65360;PMS5003;51958;55.018;73.536;2022-08-19T13:08:34;7.00;6.00;0.25
65360;PMS5003;51958;55.018;73.536;2022-08-19T13:11:12;6.00;5.50;0.50
65360;PMS5003;51958;55.018;73.536;2022-08-19T13:13:44;7.00;7.00;3.00
65360;PMS5003;51958;55.018;73.536;2022-08-19T13:16:13;12.50;10.50;4.50
65360;PMS5003;51958;55.018;73.536;2022-08-19T13:18:40;17.75;16.25;8.75
65360;PMS5003;51958;55.018;73.536;2022-08-19T13:21:07;16.25;15.00;5.50
65360;PMS5003;51958;55.018;73.536;2022-08-19T13:23:39;15.00;13.00;6.00
65360;PMS5003;51958;55.018;73.536;2022-08-19T13:26:11;13.00;11.00;5.00
65360;PMS5003;51958;55.018;73.536;2022-08-19T13:28:44;18.00;14.50;7.75
65360;PMS5003;51958;55.018;73.536;2022-08-19T13:31:29;72.75;60.50;34.75
65360;PMS5003;51958;55.018;73.536;2022-08-19T13:34:15;101.00;86.75;51.00
65360;PMS5003;51958;55.018;73.536;2022-08-19T13:36:49;59.75;45.25;27.50
65360;PMS5003;51958;55.018;73.536;2022-08-19T13:39:15;32.25;26.50;16.00
65360;PMS5003;51958;55.018;73.536;2022-08-19T13:41:46;24.00;21.00;11.00
65360;PMS5003;51958;55.018;73.536;2022-08-19T13:44:19;69.50;56.75;35.50
65360;PMS5003;51958;55.018;73.536;2022-08-19T13:46:48;93.00;82.00;54.00
65360;PMS5003;51958;55.018;73.536;2022-08-19T13:52:23;88.50;81.00;54.75
65360;PMS5003;51958;55.018;73.536;2022-08-19T13:54:56;84.00;77.75;54.25
65360;PMS5003;51958;55.018;73.536;2022-08-19T13:57:22;71.50;65.25;45.75
65360;PMS5003;51958;55.018;73.536;2022-08-19T13:59:48;74.25;71.25;55.00
65360;PMS5003;51958;55.018;73.536;2022-08-19T14:02:14;64.67;55.33;44.67
65360;PMS5003;51958;55.018;73.536;2022-08-19T14:04:40;72.75;68.00;54.50
65360;PMS5003;51958;55.018;73.536;2022-08-19T14:10:02;77.25;74.25;58.00
65360;PMS5003;51958;55.018;73.536;2022-08-19T14:12:28;70.50;64.25;49.75
65360;PMS5003;51958;55.018;73.536;2022-08-19T14:15:00;71.75;63.75;48.50
65360;PMS5003;51958;55.018;73.536;2022-08-19T14:17:26;67.75;57.75;42.50
65360;PMS5003;51958;55.018;73.536;2022-08-19T14:19:59;57.00;45.33;31.33
65360;PMS5003;51958;55.018;73.536;2022-08-19T14:22:36;68.50;57.50;43.50
65360;PMS5003;51958;55.018;73.536;2022-08-19T14:25:04;66.00;54.25;40.50
65360;PMS5003;51958;55.018;73.536;2022-08-19T14:27:37;63.25;49.75;37.50
65360;PMS5003;51958;55.018;73.536;2022-08-19T14:30:03;50.75;41.00;28.75
65360;PMS5003;51958;55.018;73.536;2022-08-19T14:32:29;42.00;35.00;25.00
65360;PMS5003;51958;55.018;73.536;2022-08-19T14:34:55;41.00;33.00;25.00
65360;PMS5003;51958;55.018;73.536;2022-08-19T14:37:21;45.00;38.00;26.67
65360;PMS5003;51958;55.018;73.536;2022-08-19T14:39:47;34.50;31.25;21.50
65360;PMS5003;51958;55.018;73.536;2022-08-19T14:42:13;21.75;19.75;16.00